Time;durP1;ratioP1;P1;durP2;ratioP2;P2;SDS_P1;SDS_P2;PMS_P1;PMS_P2;Temp;Humidity;BMP_temperature;BMP_pressure;BME280_temperature;BME280_humidity;BME280_pressure;Samples;Min_cycle;Max_cycle;Signal;HPM_P1;HPM_P2
2023/05/12 00:02:09;;;;;;;12.60;5.25;;;;;;;15.61;74.49;98411.47;5093780;28;20035;-49
2023/05/12 00:04:35;;;;;;;13.70;12.30;;;;;;;15.74;74.60;98417.28;5092453;28;20503;-49
2023/05/12 00:07:02;;;;;;;6.05;1.60;;;;;;;15.74;72.80;98416.50;5093704;28;20129;-49
2023/05/12 00:09:28;;;;;;;16.33;3.03;;;;;;;15.41;73.20;98411.94;5093537;28;20028;-49
2023/05/12 00:11:54;;;;;;;8.15;1.90;;;;;;;15.35;73.68;98419.81;5092306;28;20023;-49
2023/05/12 00:14:19;;;;;;;7.90;2.17;;;;;;;15.31;73.54;98413.38;5093521;28;20021;-49
2023/05/12 00:16:50;;;;;;;7.32;1.92;;;;;;;15.41;73.83;98414.59;5093483;28;20027;-49
2023/05/12 00:19:19;;;;;;;6.85;1.30;;;;;;;15.48;73.37;98404.66;5092952;28;20111;-49
2023/05/12 00:21:45;;;;;;;9.00;1.92;;;;;;;15.23;72.11;98400.56;5092032;28;20111;-49
2023/05/12 00:24:14;;;;;;;7.38;1.25;;;;;;;15.07;72.77;98390.72;5092078;28;20126;-49
2023/05/12 00:26:39;;;;;;;21.73;2.78;;;;;;;15.04;72.18;98405.22;5093581;28;20024;-50
2023/05/12 00:29:05;;;;;;;7.68;1.65;;;;;;;15.01;72.45;98407.53;5093266;28;20139;-49
2023/05/12 00:31:30;;;;;;;6.72;1.60;;;;;;;14.92;73.10;98405.25;5091868;28;20024;-50
2023/05/12 00:33:56;;;;;;;6.15;1.60;;;;;;;15.03;73.21;98401.00;5091893;28;20551;-49
2023/05/12 00:36:22;;;;;;;5.53;1.60;;;;;;;15.22;72.05;98388.34;5093106;28;20028;-49
2023/05/12 00:38:48;;;;;;;6.70;1.67;;;;;;;15.49;70.87;98391.22;5091446;28;20058;-50
2023/05/12 00:41:13;;;;;;;4.95;1.38;;;;;;;15.61;69.70;98388.47;5091730;28;20027;-49
2023/05/12 00:43:39;;;;;;;4.00;1.75;;;;;;;15.43;69.59;98394.78;5092971;28;20024;-49
2023/05/12 00:46:05;;;;;;;11.85;1.73;;;;;;;15.36;70.17;98388.88;5093037;28;20052;-49
2023/05/12 00:48:32;;;;;;;7.28;1.83;;;;;;;15.35;70.83;98388.06;5092958;28;20031;-49
2023/05/12 00:50:59;;;;;;;6.72;1.88;;;;;;;15.58;70.79;98387.13;5092815;28;20498;-49
2023/05/12 00:53:25;;;;;;;16.20;2.58;;;;;;;15.78;70.39;98380.59;5091492;28;20030;-49
2023/05/12 00:55:52;;;;;;;9.90;1.67;;;;;;;16.00;70.22;98383.28;5092809;28;20040;-49
2023/05/12 00:58:18;;;;;;;6.55;1.60;;;;;;;16.12;69.44;98378.69;5091709;28;20039;-49
2023/05/12 01:00:43;;;;;;;2.65;1.45;;;;;;;16.09;69.35;98379.16;5091305;28;20482;-49
2023/05/12 01:03:10;;;;;;;4.70;1.90;;;;;;;16.01;69.44;98384.09;5091325;28;20031;-49
2023/05/12 01:05:47;;;;;;;5.10;1.60;;;;;;;15.87;68.90;98378.31;5091248;28;20450;-49
2023/05/12 01:08:15;;;;;;;5.53;2.00;;;;;;;15.53;70.00;98381.75;5092572;28;20110;-49
2023/05/12 01:10:44;;;;;;;5.30;1.38;;;;;;;15.26;70.67;98378.91;5092516;28;20025;-49
2023/05/12 01:13:10;;;;;;;6.47;1.67;;;;;;;14.96;72.31;98374.69;5091149;28;20397;-49
2023/05/12 01:15:45;;;;;;;11.52;2.97;;;;;;;14.63;72.75;98375.38;5074261;28;20035;-49
2023/05/12 01:18:12;;;;;;;3.35;1.65;;;;;;;14.51;74.53;98369.31;5091117;28;20036;-49
2023/05/12 01:20:41;;;;;;;4.38;1.42;;;;;;;14.56;74.20;98364.94;5092324;28;20099;-48
2023/05/12 01:23:07;;;;;;;9.20;2.13;;;;;;;14.78;74.69;98377.50;5090972;28;20510;-49
2023/05/12 01:25:33;;;;;;;4.65;1.75;;;;;;;15.12;74.55;98367.84;5090997;28;20031;-49
2023/05/12 01:28:00;;;;;;;10.40;2.17;;;;;;;15.09;73.70;98356.94;5090955;28;20043;-49
2023/05/12 01:30:27;;;;;;;12.20;2.17;;;;;;;15.14;72.69;98354.38;5091372;28;20035;-49
2023/05/12 01:32:52;;;;;;;5.15;1.85;;;;;;;15.05;72.88;98353.97;5090924;28;20031;-49
2023/05/12 01:35:18;;;;;;;12.60;2.88;;;;;;;15.19;72.98;98357.09;5090811;28;20051;-49
2023/05/12 01:37:45;;;;;;;22.35;3.75;;;;;;;15.36;72.62;98355.28;5090855;28;20032;-49
2023/05/12 01:40:11;;;;;;;12.38;3.03;;;;;;;15.51;72.14;98359.22;5091709;28;20105;-50
2023/05/12 01:42:39;;;;;;;27.10;4.68;;;;;;;15.57;72.30;98352.97;5090759;28;20581;-49
2023/05/12 01:45:06;;;;;;;13.75;2.95;;;;;;;15.60;72.38;98354.34;5092052;28;20020;-49
2023/05/12 01:47:31;;;;;;;30.27;4.82;;;;;;;15.70;71.56;98346.56;5090675;28;20035;-49
2023/05/12 01:49:57;;;;;;;26.88;4.60;;;;;;;15.85;70.63;98356.59;5090658;28;20401;-49
2023/05/12 01:52:24;;;;;;;25.88;5.13;;;;;;;15.93;70.05;98353.53;5091955;28;20481;-49
2023/05/12 01:54:50;;;;;;;16.30;2.78;;;;;;;16.09;69.06;98358.00;5091924;28;20047;-49
2023/05/12 01:57:16;;;;;;;17.85;3.13;;;;;;;16.28;68.26;98363.00;5092077;28;20061;-49
2023/05/12 01:59:42;;;;;;;11.50;2.22;;;;;;;16.37;67.79;98354.38;5091823;28;20016;-49
2023/05/12 02:02:07;;;;;;;26.00;4.80;;;;;;;16.51;67.22;98351.38;5091861;28;20020;-49
2023/05/12 02:04:33;;;;;;;13.13;2.55;;;;;;;16.69;66.26;98348.41;5090554;28;20089;-49
2023/05/12 02:07:00;;;;;;;11.13;3.13;;;;;;;16.76;65.65;98353.50;5091869;28;20443;-49
2023/05/12 02:09:26;;;;;;;14.50;3.50;;;;;;;16.75;65.39;98349.25;5091717;28;20093;-49
2023/05/12 02:11:52;;;;;;;22.88;4.65;;;;;;;16.71;65.04;98342.84;5091781;28;20024;-49
2023/05/12 02:14:18;;;;;;;14.35;3.58;;;;;;;16.63;64.96;98344.09;5091622;28;20019;-49
2023/05/12 02:16:43;;;;;;;11.48;2.80;;;;;;;16.57;65.18;98347.75;5090406;28;20029;-49
2023/05/12 02:19:09;;;;;;;12.82;2.45;;;;;;;16.53;65.15;98350.06;5090348;28;20101;-49
2023/05/12 02:21:35;;;;;;;9.88;2.17;;;;;;;16.56;64.86;98348.78;5091889;28;20416;-48
2023/05/12 02:24:00;;;;;;;4.40;1.63;;;;;;;16.37;63.98;98349.09;5091646;28;20016;-49
2023/05/12 02:26:26;;;;;;;16.00;3.13;;;;;;;16.15;64.07;98343.78;5091589;28;20024;-49
2023/05/12 02:28:52;;;;;;;10.05;2.30;;;;;;;16.02;65.01;98345.97;5091558;28;20035;-49
2023/05/12 02:31:17;;;;;;;8.90;1.92;;;;;;;15.72;64.58;98341.84;5090208;28;20397;-49
2023/05/12 02:33:43;;;;;;;23.63;2.35;;;;;;;15.39;64.97;98351.34;5091596;28;20012;-49
2023/05/12 02:36:09;;;;;;;2.45;1.40;;;;;;;15.06;66.37;98354.78;5091470;28;20069;-49
2023/05/12 02:38:35;;;;;;;7.05;2.05;;;;;;;15.00;67.11;98339.88;5090190;28;20027;-49
2023/05/12 02:41:03;;;;;;;6.88;1.52;;;;;;;15.04;67.24;98341.78;5092503;28;20413;-49
2023/05/12 02:43:29;;;;;;;10.70;2.22;;;;;;;14.77;67.44;98328.38;5094058;28;20024;-49
2023/05/12 02:45:55;;;;;;;16.50;2.25;;;;;;;14.68;68.83;98335.06;5095288;28;20034;-50
2023/05/12 02:48:20;;;;;;;3.00;1.63;;;;;;;14.79;68.40;98326.28;5093957;28;20395;-49
2023/05/12 02:50:46;;;;;;;14.15;2.70;;;;;;;14.84;68.36;98331.66;5093922;28;20035;-49
2023/05/12 02:53:11;;;;;;;8.98;1.95;;;;;;;15.03;68.28;98326.16;5093863;28;20418;-49
2023/05/12 02:55:38;;;;;;;19.42;3.10;;;;;;;15.20;67.64;98323.56;5093918;28;20529;-49
2023/05/12 02:58:03;;;;;;;13.13;2.20;;;;;;;15.13;67.51;98324.50;5093910;28;20406;-49
2023/05/12 03:00:29;;;;;;;15.25;2.17;;;;;;;15.33;67.74;98326.69;5093570;28;20509;-49
2023/05/12 03:02:55;;;;;;;6.15;2.08;;;;;;;15.39;67.27;98324.91;5095015;28;20402;-49
2023/05/12 03:05:20;;;;;;;12.70;2.45;;;;;;;15.55;67.21;98316.19;5093581;28;20120;-50
2023/05/12 03:07:48;;;;;;;12.18;2.65;;;;;;;15.80;66.56;98319.50;5094902;28;20576;-49
2023/05/12 03:10:14;;;;;;;12.65;2.45;;;;;;;15.95;65.70;98317.03;5095064;28;20107;-49
2023/05/12 03:12:40;;;;;;;13.32;2.20;;;;;;;15.72;65.20;98318.03;5094857;28;20099;-49
2023/05/12 03:15:07;;;;;;;13.23;4.53;;;;;;;15.63;66.37;98317.59;5093363;28;20446;-49
2023/05/12 03:17:33;;;;;;;11.30;2.78;;;;;;;15.70;66.21;98320.91;5094648;28;20035;-49
2023/05/12 03:19:59;;;;;;;177.00;162.13;;;;;;;15.72;65.90;98320.66;5094568;28;20398;-49
2023/05/12 03:22:25;;;;;;;18.33;9.45;;;;;;;15.66;65.68;98314.50;5093222;28;20028;-49
2023/05/12 03:24:50;;;;;;;16.85;5.43;;;;;;;15.36;65.78;98320.91;5093228;28;20024;-49
2023/05/12 03:27:16;;;;;;;7.65;2.25;;;;;;;15.22;66.72;98322.28;5093362;28;20435;-50
2023/05/12 03:29:42;;;;;;;13.30;3.25;;;;;;;15.19;67.51;98314.81;5094767;28;20078;-50
2023/05/12 03:32:08;;;;;;;8.02;2.60;;;;;;;15.24;67.16;98317.53;5094454;28;20474;-49
2023/05/12 03:34:33;;;;;;;17.75;3.05;;;;;;;15.24;66.98;98312.25;5094409;28;20028;-49
2023/05/12 03:36:59;;;;;;;11.32;3.70;;;;;;;15.41;67.40;98309.59;5094224;28;20016;-50
2023/05/12 03:39:28;;;;;;;13.73;3.80;;;;;;;15.67;66.95;98305.50;5093976;28;20117;-50
2023/05/12 03:41:53;;;;;;;9.80;3.13;;;;;;;15.83;65.93;98311.84;5092882;28;20506;-49
2023/05/12 03:44:19;;;;;;;11.48;3.03;;;;;;;15.83;65.63;98303.91;5092864;28;20036;-49
2023/05/12 03:46:45;;;;;;;13.23;2.55;;;;;;;15.75;64.89;98306.97;5092774;28;20027;-49
2023/05/12 03:49:10;;;;;;;7.10;2.47;;;;;;;15.67;65.15;98302.84;5092747;28;20035;-49
2023/05/12 03:51:36;;;;;;;6.60;2.20;;;;;;;15.44;65.57;98305.69;5092642;28;20123;-49
2023/05/12 03:54:02;;;;;;;7.15;2.90;;;;;;;15.34;66.25;98307.13;5093189;28;20104;-50
2023/05/12 03:56:28;;;;;;;9.82;1.98;;;;;;;15.45;66.70;98308.09;5093894;28;20405;-49
2023/05/12 03:58:53;;;;;;;20.30;3.75;;;;;;;15.71;66.35;98311.13;5093799;28;20028;-49
2023/05/12 04:01:19;;;;;;;8.32;2.10;;;;;;;15.89;65.54;98302.13;5092479;28;20035;-49
2023/05/12 04:03:45;;;;;;;19.20;4.70;;;;;;;15.98;65.31;98305.97;5093846;28;20064;-49
2023/05/12 04:06:11;;;;;;;18.95;3.15;;;;;;;16.11;65.41;98299.50;5093690;28;20160;-49
2023/05/12 04:08:37;;;;;;;7.75;1.98;;;;;;;16.25;64.73;98306.03;5093721;28;20036;-49
2023/05/12 04:11:03;;;;;;;9.98;2.20;;;;;;;16.33;64.27;98308.25;5093680;28;20035;-49
2023/05/12 04:13:32;;;;;;;17.67;2.95;;;;;;;16.11;64.36;98302.94;5093786;28;20023;-50
2023/05/12 04:15:59;;;;;;;9.95;2.17;;;;;;;16.13;63.98;98305.34;5092190;28;20020;-49
2023/05/12 04:18:26;;;;;;;14.05;3.70;;;;;;;16.02;63.61;98307.09;5093485;28;20106;-49
2023/05/12 04:20:54;;;;;;;25.38;4.15;;;;;;;15.87;64.13;98314.81;5093378;28;20531;-49
2023/05/12 04:23:20;;;;;;;11.43;2.63;;;;;;;15.71;64.40;98309.25;5093424;28;20024;-49
2023/05/12 04:25:46;;;;;;;9.82;2.30;;;;;;;15.60;64.99;98307.53;5093362;28;20035;-49
2023/05/12 04:28:12;;;;;;;9.13;2.35;;;;;;;15.51;65.13;98303.69;5093387;28;20370;-49
2023/05/12 04:30:41;;;;;;;7.82;1.90;;;;;;;15.62;65.89;98297.50;5093286;28;20077;-49
2023/05/12 04:33:07;;;;;;;9.25;2.40;;;;;;;15.87;65.34;98302.38;5091916;28;20030;-49
2023/05/12 04:35:33;;;;;;;12.23;3.47;;;;;;;16.14;64.68;98294.53;5091841;28;20024;-50
2023/05/12 04:38:00;;;;;;;10.40;2.33;;;;;;;16.26;63.39;98302.34;5093141;28;20073;-49
2023/05/12 04:40:26;;;;;;;13.75;2.38;;;;;;;16.13;63.56;98306.16;5092715;28;20622;-49
2023/05/12 04:42:53;;;;;;;13.50;2.45;;;;;;;16.07;63.84;98301.03;5092985;28;20055;-50
2023/05/12 04:45:19;;;;;;;8.32;2.13;;;;;;;16.20;63.91;98302.53;5092924;28;20033;-49
2023/05/12 04:47:44;;;;;;;9.73;2.30;;;;;;;16.26;63.33;98306.84;5091644;28;20030;-49
2023/05/12 04:50:10;;;;;;;53.60;19.65;;;;;;;16.04;62.88;98315.59;5091553;28;20043;-49
2023/05/12 04:52:36;;;;;;;31.27;5.82;;;;;;;15.81;63.79;98316.56;5091505;28;20035;-49
2023/05/12 04:55:03;;;;;;;9.52;2.80;;;;;;;15.70;64.61;98320.91;5092917;28;20028;-49
2023/05/12 04:57:29;;;;;;;9.85;2.20;;;;;;;15.58;63.92;98325.50;5091489;28;20028;-49
2023/05/12 04:59:57;;;;;;;10.48;2.33;;;;;;;15.52;65.20;98323.81;5091347;28;20028;-50
2023/05/12 05:02:22;;;;;;;9.15;2.13;;;;;;;15.77;64.86;98321.56;5091315;28;20020;-49
2023/05/12 05:04:48;;;;;;;5.28;1.75;;;;;;;15.84;63.64;98326.69;5091293;28;20028;-49
2023/05/12 05:07:15;;;;;;;12.65;2.80;;;;;;;15.60;64.37;98328.69;5091255;28;20024;-49
2023/05/12 05:09:41;;;;;;;7.60;2.50;;;;;;;15.45;64.58;98331.09;5091239;28;20036;-49
2023/05/12 05:12:07;;;;;;;11.63;2.95;;;;;;;15.24;65.41;98335.25;5092453;28;20086;-49
2023/05/12 05:14:33;;;;;;;8.63;2.42;;;;;;;15.12;65.82;98335.31;5091136;28;20016;-49
2023/05/12 05:16:58;;;;;;;10.13;2.20;;;;;;;14.95;66.01;98335.28;5091081;28;20043;-49
2023/05/12 05:19:25;;;;;;;15.45;2.45;;;;;;;14.94;66.67;98334.47;5091000;28;20032;-49
2023/05/12 05:21:50;;;;;;;6.82;2.33;;;;;;;15.06;66.56;98342.34;5092410;28;20101;-50
2023/05/12 05:24:16;;;;;;;9.70;2.83;;;;;;;15.07;66.58;98343.97;5092322;28;20101;-49
2023/05/12 05:26:42;;;;;;;11.07;2.40;;;;;;;15.25;66.56;98342.13;5091023;28;20075;-48
2023/05/12 05:29:08;;;;;;;11.43;2.55;;;;;;;15.31;66.42;98346.47;5090919;28;20428;-49
2023/05/12 05:31:33;;;;;;;7.68;2.47;;;;;;;15.46;66.14;98340.63;5074074;28;20024;-50
2023/05/12 05:33:59;;;;;;;15.02;3.65;;;;;;;15.61;65.55;98345.34;5092284;28;20024;-49
2023/05/12 05:36:25;;;;;;;8.13;2.80;;;;;;;15.65;64.96;98336.69;5090796;28;20024;-49
2023/05/12 05:38:51;;;;;;;9.98;2.20;;;;;;;15.71;64.90;98340.22;5090479;28;20024;-50
2023/05/12 05:41:17;;;;;;;18.00;3.42;;;;;;;15.89;64.69;98339.97;5092091;28;20035;-49
2023/05/12 05:43:43;;;;;;;9.82;2.17;;;;;;;16.17;63.84;98339.03;5091934;28;20150;-49
2023/05/12 05:46:08;;;;;;;14.30;2.33;;;;;;;16.36;62.91;98338.75;5092010;28;20016;-49
2023/05/12 05:48:35;;;;;;;10.48;2.20;;;;;;;16.44;62.00;98338.31;5092039;28;20055;-49
2023/05/12 05:51:01;;;;;;;7.22;1.98;;;;;;;16.45;61.58;98344.41;5091904;28;20028;-49
2023/05/12 05:53:27;;;;;;;8.90;2.20;;;;;;;16.16;62.33;98347.25;5090651;28;20024;-49
2023/05/12 05:55:53;;;;;;;23.17;3.22;;;;;;;16.13;62.67;98340.56;5090581;28;20032;-49
2023/05/12 05:58:18;;;;;;;9.57;2.72;;;;;;;16.09;62.39;98347.41;5090518;28;20035;-49
2023/05/12 06:00:44;;;;;;;22.08;3.30;;;;;;;16.08;63.00;98348.47;5092294;28;20081;-49
2023/05/12 06:03:10;;;;;;;9.95;2.33;;;;;;;16.17;63.00;98354.91;5090530;28;20024;-49
2023/05/12 06:05:36;;;;;;;10.90;3.28;;;;;;;16.05;62.61;98354.22;5090560;28;20020;-49
2023/05/12 06:08:04;;;;;;;15.50;2.92;;;;;;;15.87;63.22;98351.84;5091764;28;20020;-49
2023/05/12 06:10:29;;;;;;;5.65;2.15;;;;;;;15.60;63.18;98363.06;5091799;28;20563;-49
2023/05/12 06:12:55;;;;;;;9.45;2.30;;;;;;;15.38;64.54;98355.06;5091724;28;20051;-49
2023/05/12 06:15:21;;;;;;;12.55;2.92;;;;;;;15.48;64.67;98355.22;5073731;28;20023;-49
2023/05/12 06:17:46;;;;;;;7.10;2.10;;;;;;;15.66;64.28;98361.31;5095859;28;20028;-49
2023/05/12 06:20:13;;;;;;;12.05;3.38;;;;;;;15.76;64.07;98351.72;5095695;28;20024;-49
2023/05/12 06:22:41;;;;;;;12.35;2.97;;;;;;;15.91;63.93;98353.78;5094473;28;20024;-49
2023/05/12 06:25:07;;;;;;;11.57;2.63;;;;;;;16.08;63.53;98353.75;5094523;28;20031;-49
2023/05/12 06:27:32;;;;;;;20.25;3.78;;;;;;;16.27;63.06;98356.91;5094425;28;20130;-49
2023/05/12 06:29:58;;;;;;;8.75;2.72;;;;;;;16.43;62.47;98357.91;5094331;28;20115;-49
2023/05/12 06:32:24;;;;;;;12.57;2.97;;;;;;;16.52;62.04;98360.91;5095584;28;20103;-49
2023/05/12 06:34:50;;;;;;;20.98;3.28;;;;;;;16.59;61.76;98358.88;5095788;28;20486;-49
2023/05/12 06:37:15;;;;;;;14.70;2.60;;;;;;;16.76;61.65;98366.75;5094124;28;20054;-49
2023/05/12 06:39:41;;;;;;;11.50;3.17;;;;;;;16.86;61.07;98366.91;5095224;28;20040;-49
2023/05/12 06:42:07;;;;;;;10.52;2.58;;;;;;;16.90;60.66;98367.19;5095317;28;20028;-49
2023/05/12 06:44:32;;;;;;;8.95;2.88;;;;;;;16.85;60.66;98357.34;5094083;28;20490;-48
2023/05/12 06:46:58;;;;;;;14.38;3.38;;;;;;;16.81;60.62;98366.84;5094021;28;20024;-49
2023/05/12 06:49:24;;;;;;;16.30;3.50;;;;;;;16.80;60.98;98367.84;5095215;28;20081;-49
2023/05/12 06:51:50;;;;;;;14.90;3.05;;;;;;;16.67;60.91;98366.41;5095174;28;20028;-49
2023/05/12 06:54:15;;;;;;;25.92;4.03;;;;;;;16.52;60.75;98364.38;5095472;28;20562;-49
2023/05/12 06:56:41;;;;;;;9.98;5.70;;;;;;;16.43;61.58;98368.50;5095164;28;20086;-49
2023/05/12 06:59:07;;;;;;;13.20;11.98;;;;;;;16.35;61.84;98366.28;5095054;28;20111;-49
2023/05/12 07:01:33;;;;;;;10.13;3.88;;;;;;;16.35;61.95;98369.72;5095337;28;20440;-49
2023/05/12 07:03:59;;;;;;;20.45;4.63;;;;;;;16.33;61.89;98371.81;5094904;28;20114;-49
2023/05/12 07:06:27;;;;;;;3.28;2.05;;;;;;;16.42;61.64;98369.56;5095185;28;20496;-50
2023/05/12 07:08:54;;;;;;;12.23;2.95;;;;;;;16.49;61.56;98367.50;5095154;28;20377;-49
2023/05/12 07:11:20;;;;;;;10.85;3.03;;;;;;;16.63;61.19;98367.94;5095067;28;20401;-49
2023/05/12 07:13:46;;;;;;;14.45;3.25;;;;;;;16.77;60.87;98366.50;5093584;28;20039;-49
2023/05/12 07:16:16;;;;;;;12.02;2.50;;;;;;;16.96;60.40;98367.03;5076531;28;20020;-49
2023/05/12 07:18:42;;;;;;;13.38;3.00;;;;;;;17.15;59.42;98366.66;5094685;28;20066;-49
2023/05/12 07:21:08;;;;;;;7.60;2.35;;;;;;;17.22;58.88;98361.16;5093281;28;20396;-49
2023/05/12 07:23:35;;;;;;;5.60;2.40;;;;;;;17.10;57.73;98364.78;5093423;28;20093;-48
2023/05/12 07:26:02;;;;;;;10.43;2.58;;;;;;;16.91;58.49;98366.94;5094532;28;20020;-49
2023/05/12 07:28:34;;;;;;;6.15;2.60;;;;;;;16.82;58.95;98368.47;5093249;28;20024;-49
2023/05/12 07:31:01;;;;;;;9.25;2.42;;;;;;;16.76;59.30;98356.97;5094414;28;20024;-49
2023/05/12 07:33:27;;;;;;;7.50;2.50;;;;;;;16.87;59.30;98363.19;5094451;28;20497;-49
2023/05/12 07:35:53;;;;;;;7.20;2.55;;;;;;;17.08;58.77;98358.09;5093137;28;20495;-49
2023/05/12 07:38:19;;;;;;;9.38;2.65;;;;;;;17.29;58.42;98357.25;5092943;28;20177;-49
2023/05/12 07:40:45;;;;;;;13.07;2.83;;;;;;;17.41;57.98;98353.63;5093946;28;20052;-48
2023/05/12 07:43:11;;;;;;;8.35;2.38;;;;;;;17.47;57.73;98355.28;5094482;28;20032;-50
2023/05/12 07:45:36;;;;;;;7.03;2.30;;;;;;;17.56;57.77;98359.84;5094116;28;20401;-49
2023/05/12 07:48:02;;;;;;;10.40;2.72;;;;;;;17.80;57.09;98348.88;5094148;28;20020;-49
2023/05/12 07:50:28;;;;;;;8.77;2.17;;;;;;;17.98;56.14;98354.84;5094046;28;20032;-49
2023/05/12 07:52:54;;;;;;;14.70;2.70;;;;;;;18.06;55.70;98349.06;5094055;28;20026;-49
2023/05/12 07:55:21;;;;;;;8.48;2.53;;;;;;;18.10;55.52;98345.63;5092685;28;20040;-49
2023/05/12 07:57:48;;;;;;;8.50;2.25;;;;;;;18.19;55.34;98355.75;5093947;28;20139;-49
2023/05/12 08:00:14;;;;;;;6.20;2.38;;;;;;;18.29;55.22;98347.84;5093770;28;20027;-48
2023/05/12 08:02:41;;;;;;;6.53;1.98;;;;;;;18.42;54.52;98344.72;5093835;28;20031;-49
2023/05/12 08:05:11;;;;;;;8.98;2.00;;;;;;;18.38;54.85;98343.63;5093806;28;20035;-47
2023/05/12 08:07:38;;;;;;;8.35;1.80;;;;;;;18.17;54.36;98346.22;5092755;28;20032;-47
2023/05/12 08:10:05;;;;;;;8.52;1.88;;;;;;;18.06;55.02;98344.53;5092325;28;20040;-47
2023/05/12 08:12:31;;;;;;;8.07;2.70;;;;;;;18.28;54.98;98343.59;5093616;28;20048;-47
2023/05/12 08:14:57;;;;;;;5.80;2.10;;;;;;;18.40;54.06;98338.06;5093645;28;20114;-47
2023/05/12 08:17:23;;;;;;;11.23;2.00;;;;;;;18.54;53.34;98339.97;5093535;28;20051;-47
2023/05/12 08:19:49;;;;;;;9.40;1.80;;;;;;;18.70;52.92;98342.69;5092147;28;20119;-47
2023/05/12 08:22:14;;;;;;;9.43;1.88;;;;;;;18.80;52.86;98349.94;5092098;28;20046;-47
2023/05/12 08:24:40;;;;;;;3.58;1.95;;;;;;;18.97;52.49;98342.50;5093466;28;20039;-47
2023/05/12 08:27:06;;;;;;;5.78;1.98;;;;;;;19.13;52.27;98341.47;5093333;28;20038;-47
2023/05/12 08:29:31;;;;;;;11.93;2.00;;;;;;;19.38;52.15;98339.06;5092047;28;20084;-47
2023/05/12 08:31:57;;;;;;;10.38;2.30;;;;;;;19.53;51.82;98339.88;5093256;28;20038;-47
2023/05/12 08:34:23;;;;;;;9.38;2.00;;;;;;;19.70;51.27;98330.84;5093500;28;20020;-47
2023/05/12 08:36:51;;;;;;;7.38;1.80;;;;;;;19.86;50.69;98336.94;5093232;28;20164;-47
2023/05/12 08:39:17;;;;;;;10.38;2.30;;;;;;;19.90;50.32;98338.81;5092474;28;20044;-47
2023/05/12 08:41:51;;;;;;;14.25;2.47;;;;;;;19.99;50.05;98338.25;5091866;28;20020;-47
2023/05/12 08:44:18;;;;;;;6.78;2.03;;;;;;;20.04;49.96;98336.38;5091805;28;20513;-47
2023/05/12 08:46:44;;;;;;;11.23;2.13;;;;;;;20.01;49.55;98334.25;5092988;28;20077;-47
2023/05/12 08:49:15;;;;;;;14.98;2.40;;;;;;;19.94;49.53;98339.06;5092991;28;20035;-47
2023/05/12 08:51:46;;;;;;;9.93;1.80;;;;;;;19.95;49.57;98332.66;5091666;28;20028;-47
2023/05/12 08:54:12;;;;;;;16.10;2.42;;;;;;;20.00;49.33;98338.00;5092883;28;20429;-47
2023/05/12 08:56:40;;;;;;;9.88;2.15;;;;;;;20.04;48.38;98332.91;5092797;28;20051;-47
2023/05/12 08:59:08;;;;;;;11.90;2.55;;;;;;;19.94;48.47;98331.06;5092631;28;20031;-47
2023/05/12 09:01:35;;;;;;;7.47;2.08;;;;;;;19.88;48.53;98332.97;5091514;28;20714;-46
2023/05/12 09:04:01;;;;;;;13.10;2.78;;;;;;;19.81;48.76;98334.31;5091441;28;20028;-47
2023/05/12 09:06:28;;;;;;;7.53;1.77;;;;;;;19.65;49.44;98338.81;5092598;28;20024;-47
2023/05/12 09:08:54;;;;;;;10.25;2.60;;;;;;;19.65;49.79;98338.81;5091394;28;20016;-47
2023/05/12 09:11:21;;;;;;;9.32;2.30;;;;;;;19.56;49.63;98331.38;5091213;28;20607;-47
2023/05/12 09:14:02;;;;;;;5.63;1.92;;;;;;;19.41;49.55;98336.69;5091196;28;20036;-47
2023/05/12 09:16:38;;;;;;;8.27;2.15;;;;;;;19.18;50.23;98331.91;5092565;28;20105;-47
2023/05/12 09:19:05;;;;;;;7.28;1.55;;;;;;;19.26;50.23;98332.19;5057846;28;20043;-47
2023/05/12 09:21:31;;;;;;;11.70;2.00;;;;;;;19.46;50.38;98338.56;5092342;28;20023;-47
2023/05/12 09:24:10;;;;;;;12.63;3.83;;;;;;;19.60;49.85;98333.47;5090998;28;20028;-47
2023/05/12 09:26:50;;;;;;;12.43;3.00;;;;;;;19.63;49.96;98333.75;5092279;28;20562;-47
2023/05/12 09:29:16;;;;;;;18.48;2.63;;;;;;;19.63;49.86;98328.44;5092544;28;20497;-47
2023/05/12 09:31:57;;;;;;;8.15;2.45;;;;;;;19.69;49.66;98332.69;5092166;28;20551;-47
2023/05/12 09:34:30;;;;;;;7.53;2.10;;;;;;;19.75;49.62;98330.84;5092081;28;20099;-47
2023/05/12 09:36:58;;;;;;;11.20;2.38;;;;;;;19.79;49.34;98337.22;5092162;28;20089;-47
2023/05/12 09:39:24;;;;;;;8.80;2.53;;;;;;;19.84;49.19;98334.56;5091768;28;20044;-47
2023/05/12 09:41:51;;;;;;;10.60;2.35;;;;;;;19.98;48.99;98326.81;5092278;28;20020;-47
2023/05/12 09:44:18;;;;;;;7.05;1.90;;;;;;;20.15;48.63;98326.50;5092314;28;20028;-47
2023/05/12 09:46:44;;;;;;;8.50;2.20;;;;;;;20.35;48.46;98328.28;5092028;28;20024;-47
2023/05/12 09:49:10;;;;;;;12.93;2.20;;;;;;;20.61;48.00;98322.88;5091963;28;20031;-47
2023/05/12 09:51:36;;;;;;;14.20;2.15;;;;;;;20.81;46.97;98320.09;5091284;28;20494;-47
2023/05/12 09:54:03;;;;;;;7.50;1.63;;;;;;;20.88;46.29;98320.56;5091952;28;20036;-47
2023/05/12 09:56:34;;;;;;;7.72;3.67;;;;;;;21.07;46.48;98307.38;5091855;28;20020;-47
2023/05/12 09:59:04;;;;;;;8.57;3.40;;;;;;;21.43;45.09;98322.31;5091923;28;20086;-47
2023/05/12 10:01:30;;;;;;;16.95;6.30;;;;;;;21.81;44.84;98325.19;5092085;28;20086;-47
2023/05/12 10:03:58;;;;;;;4.35;1.75;;;;;;;22.35;43.25;98321.41;5092066;28;20031;-47
2023/05/12 10:06:30;;;;;;;5.82;1.63;;;;;;;22.61;42.72;98318.41;5091879;28;20131;-47
2023/05/12 10:09:04;;;;;;;22.05;3.10;;;;;;;22.87;42.55;98321.50;5091789;28;20067;-47
2023/05/12 10:11:31;;;;;;;9.50;2.58;;;;;;;23.16;41.77;98315.22;5092382;28;20444;-47
2023/05/12 10:13:58;;;;;;;5.40;1.67;;;;;;;23.65;41.34;98303.94;5091780;28;20036;-47
2023/05/12 10:16:25;;;;;;;13.77;1.95;;;;;;;24.26;39.80;98309.25;5091671;28;20448;-47
2023/05/12 10:18:51;;;;;;;7.25;2.00;;;;;;;24.48;39.00;98303.16;5090371;28;20084;-47
2023/05/12 10:21:18;;;;;;;10.45;1.75;;;;;;;24.56;38.62;98307.06;5091641;28;20107;-47
2023/05/12 10:23:45;;;;;;;2.95;1.50;;;;;;;24.31;38.98;98296.53;5091710;28;20023;-47
2023/05/12 10:26:12;;;;;;;6.93;1.55;;;;;;;24.43;38.70;98306.75;5091593;28;20032;-47
2023/05/12 10:28:38;;;;;;;8.20;1.90;;;;;;;24.36;38.30;98295.63;5091619;28;20027;-47
2023/05/12 10:31:06;;;;;;;6.63;1.58;;;;;;;24.10;38.57;98295.34;5090272;28;20028;-47
2023/05/12 10:33:32;;;;;;;6.97;1.33;;;;;;;23.68;39.08;98298.00;5090315;28;20397;-47
2023/05/12 10:35:58;;;;;;;5.55;1.60;;;;;;;23.44;39.60;98290.13;5090223;28;20147;-47
2023/05/12 10:38:24;;;;;;;4.88;1.20;;;;;;;23.08;40.04;98298.75;5091551;28;20023;-47
2023/05/12 10:41:01;;;;;;;6.85;1.75;;;;;;;22.71;40.76;98288.81;5091131;28;20048;-47
2023/05/12 10:43:33;;;;;;;7.93;3.15;;;;;;;22.34;41.38;98285.84;5090142;28;20081;-47
2023/05/12 10:46:12;;;;;;;8.13;2.15;;;;;;;22.19;41.70;98285.22;5091757;28;20028;-47
2023/05/12 10:48:57;;;;;;;7.93;2.03;;;;;;;22.06;42.54;98281.38;5091465;28;20016;-47
2023/05/12 10:51:25;;;;;;;;;;;;;;;22.16;42.30;98288.47;5092114;28;20020;-46
2023/05/12 10:54:02;;;;;;;5.82;1.70;;;;;;;21.92;42.04;98281.25;5091348;28;19912;-47
2023/05/12 10:56:37;;;;;;;8.43;1.95;;;;;;;21.54;43.12;98283.78;5091396;28;20086;-46
2023/05/12 10:59:17;;;;;;;4.65;1.92;;;;;;;21.32;43.34;98277.00;5090020;28;20028;-46
2023/05/12 11:01:57;;;;;;;8.80;2.20;;;;;;;21.14;43.65;98288.38;5092413;28;20028;-47
2023/05/12 11:04:35;;;;;;;8.68;2.03;;;;;;;21.18;44.18;98284.06;5093717;28;20513;-47
2023/05/12 11:07:03;;;;;;;8.38;1.65;;;;;;;21.29;43.62;98290.13;5093706;28;20099;-46
2023/05/12 11:09:29;;;;;;;9.60;1.98;;;;;;;21.50;43.30;98285.41;5093570;28;20405;-47
2023/05/12 11:11:55;;;;;;;10.52;1.92;;;;;;;21.92;43.24;98284.72;5093490;28;20101;-46
2023/05/12 11:14:21;;;;;;;4.30;1.45;;;;;;;22.46;42.44;98276.63;5094884;28;20074;-47
2023/05/12 11:16:47;;;;;;;12.05;2.00;;;;;;;22.79;41.31;98269.44;5093393;28;20020;-47
2023/05/12 11:19:13;;;;;;;4.65;1.75;;;;;;;23.04;40.94;98265.63;5094629;28;20023;-47
2023/05/12 11:21:39;;;;;;;12.00;1.63;;;;;;;23.31;40.56;98261.44;5094676;28;20109;-47
2023/05/12 11:24:05;;;;;;;6.00;1.70;;;;;;;23.77;39.50;98263.31;5093314;28;20035;-47
2023/05/12 11:26:31;;;;;;;5.90;1.88;;;;;;;24.03;38.63;98252.88;5094566;28;20012;-47
2023/05/12 11:28:57;;;;;;;13.48;2.75;;;;;;;24.25;38.29;98246.00;5094443;28;20061;-47